Terminal Aerodrome Forecast
Issued by NWS

Home | Current Version | Previous Version | Text Only | Print | Product List | Glossary On
Versions: 1 2 3 4 5 6 7 8 9 10 11 12 13 14
000
FTUS45 KGGW 191914 AAA
TAFGDV
TAF AMD
KGDV 191914Z 1919/2018 00000KT P6SM SCT005 BKN120
     FM200100 26004KT 3SM BR SCT004 BKN080
     FM200600 27005KT 1/2SM FG BKN005
     FM201500 26009KT P6SM SCT005 SCT090=

USA.gov is the U.S. government's official web portal to all federal, state and local government web resources and services.